sensor_id;sensor_type;location;lat;lon;timestamp;temperature;humidity
20610;DHT22;10463;52.378;9.688;2023-02-01T00:02:19;21.70;25.40
20610;DHT22;10463;52.378;9.688;2023-02-01T00:04:45;21.70;24.90
20610;DHT22;10463;52.378;9.688;2023-02-01T00:07:12;21.70;24.80
20610;DHT22;10463;52.378;9.688;2023-02-01T00:09:38;21.70;24.80
20610;DHT22;10463;52.378;9.688;2023-02-01T00:12:05;21.70;24.80
20610;DHT22;10463;52.378;9.688;2023-02-01T00:14:31;21.70;24.80
20610;DHT22;10463;52.378;9.688;2023-02-01T00:17:04;21.70;24.80
20610;DHT22;10463;52.378;9.688;2023-02-01T00:19:34;21.70;24.80
20610;DHT22;10463;52.378;9.688;2023-02-01T00:22:01;21.70;24.80
20610;DHT22;10463;52.378;9.688;2023-02-01T00:24:27;21.70;25.30
20610;DHT22;10463;52.378;9.688;2023-02-01T00:26:54;21.70;24.80
20610;DHT22;10463;52.378;9.688;2023-02-01T00:29:22;21.70;24.80
20610;DHT22;10463;52.378;9.688;2023-02-01T00:31:50;21.70;24.80
20610;DHT22;10463;52.378;9.688;2023-02-01T00:34:19;21.80;24.90
20610;DHT22;10463;52.378;9.688;2023-02-01T00:36:47;21.70;24.80
20610;DHT22;10463;52.378;9.688;2023-02-01T00:39:16;21.70;24.80
20610;DHT22;10463;52.378;9.688;2023-02-01T00:41:43;21.70;24.80
20610;DHT22;10463;52.378;9.688;2023-02-01T00:44:09;21.70;24.80
20610;DHT22;10463;52.378;9.688;2023-02-01T00:46:36;21.70;24.80
20610;DHT22;10463;52.378;9.688;2023-02-01T00:49:03;21.70;24.80
20610;DHT22;10463;52.378;9.688;2023-02-01T00:51:30;21.80;25.40
20610;DHT22;10463;52.378;9.688;2023-02-01T00:53:58;21.80;24.80
20610;DHT22;10463;52.378;9.688;2023-02-01T00:56:25;21.80;24.80
20610;DHT22;10463;52.378;9.688;2023-02-01T00:58:53;21.80;24.90
20610;DHT22;10463;52.378;9.688;2023-02-01T01:01:22;21.80;24.90
20610;DHT22;10463;52.378;9.688;2023-02-01T01:03:52;21.80;24.90
20610;DHT22;10463;52.378;9.688;2023-02-01T01:06:24;21.80;24.90
20610;DHT22;10463;52.378;9.688;2023-02-01T01:08:51;21.80;24.90
20610;DHT22;10463;52.378;9.688;2023-02-01T01:11:23;21.80;24.80
20610;DHT22;10463;52.378;9.688;2023-02-01T01:13:51;21.80;24.80
20610;DHT22;10463;52.378;9.688;2023-02-01T01:16:19;21.80;24.80
20610;DHT22;10463;52.378;9.688;2023-02-01T01:18:46;21.80;24.90
20610;DHT22;10463;52.378;9.688;2023-02-01T01:21:14;21.80;24.90
20610;DHT22;10463;52.378;9.688;2023-02-01T01:23:41;21.80;24.70
20610;DHT22;10463;52.378;9.688;2023-02-01T01:26:09;21.70;24.40
20610;DHT22;10463;52.378;9.688;2023-02-01T01:28:37;21.60;23.90
20610;DHT22;10463;52.378;9.688;2023-02-01T01:31:04;21.60;23.60
20610;DHT22;10463;52.378;9.688;2023-02-01T01:33:33;21.50;23.20
20610;DHT22;10463;52.378;9.688;2023-02-01T01:36:00;21.40;23.00
20610;DHT22;10463;52.378;9.688;2023-02-01T01:38:26;21.30;22.90
20610;DHT22;10463;52.378;9.688;2023-02-01T01:40:55;21.20;22.90
20610;DHT22;10463;52.378;9.688;2023-02-01T01:43:44;21.10;22.80
20610;DHT22;10463;52.378;9.688;2023-02-01T01:46:17;21.10;22.80
20610;DHT22;10463;52.378;9.688;2023-02-01T01:48:44;21.00;22.70
20610;DHT22;10463;52.378;9.688;2023-02-01T01:51:13;20.90;22.50
20610;DHT22;10463;52.378;9.688;2023-02-01T01:53:53;20.80;22.50
20610;DHT22;10463;52.378;9.688;2023-02-01T01:56:20;20.70;22.40
20610;DHT22;10463;52.378;9.688;2023-02-01T01:58:47;20.70;22.50
20610;DHT22;10463;52.378;9.688;2023-02-01T02:01:15;20.60;22.60
20610;DHT22;10463;52.378;9.688;2023-02-01T02:03:44;20.60;22.90
20610;DHT22;10463;52.378;9.688;2023-02-01T02:06:20;20.60;23.00
20610;DHT22;10463;52.378;9.688;2023-02-01T02:08:49;20.60;23.20
20610;DHT22;10463;52.378;9.688;2023-02-01T02:11:17;20.60;23.30
20610;DHT22;10463;52.378;9.688;2023-02-01T02:13:47;20.60;23.40
20610;DHT22;10463;52.378;9.688;2023-02-01T02:16:31;20.70;23.60
20610;DHT22;10463;52.378;9.688;2023-02-01T02:19:30;20.70;23.70
20610;DHT22;10463;52.378;9.688;2023-02-01T02:22:24;20.70;23.70
20610;DHT22;10463;52.378;9.688;2023-02-01T02:25:20;20.80;23.90
20610;DHT22;10463;52.378;9.688;2023-02-01T02:27:52;20.80;23.90
20610;DHT22;10463;52.378;9.688;2023-02-01T02:31:06;20.80;23.90
20610;DHT22;10463;52.378;9.688;2023-02-01T02:33:54;20.80;23.90
20610;DHT22;10463;52.378;9.688;2023-02-01T02:36:34;20.80;24.00
20610;DHT22;10463;52.378;9.688;2023-02-01T02:39:07;20.90;24.00
20610;DHT22;10463;52.378;9.688;2023-02-01T02:41:48;20.90;24.10
20610;DHT22;10463;52.378;9.688;2023-02-01T02:44:45;20.90;24.00
20610;DHT22;10463;52.378;9.688;2023-02-01T02:47:40;21.00;24.10
20610;DHT22;10463;52.378;9.688;2023-02-01T02:50:17;21.00;24.10
20610;DHT22;10463;52.378;9.688;2023-02-01T02:53:11;21.00;24.10
20610;DHT22;10463;52.378;9.688;2023-02-01T02:55:58;21.00;24.10
20610;DHT22;10463;52.378;9.688;2023-02-01T02:58:45;21.10;24.20
20610;DHT22;10463;52.378;9.688;2023-02-01T03:01:30;21.00;24.10
20610;DHT22;10463;52.378;9.688;2023-02-01T03:04:16;21.10;24.20
20610;DHT22;10463;52.378;9.688;2023-02-01T03:06:47;21.10;24.20
20610;DHT22;10463;52.378;9.688;2023-02-01T03:09:20;21.10;24.20
20610;DHT22;10463;52.378;9.688;2023-02-01T03:11:51;21.10;24.70
20610;DHT22;10463;52.378;9.688;2023-02-01T03:14:38;21.10;24.20
20610;DHT22;10463;52.378;9.688;2023-02-01T03:17:11;21.10;24.20
20610;DHT22;10463;52.378;9.688;2023-02-01T03:19:42;21.20;24.20
20610;DHT22;10463;52.378;9.688;2023-02-01T03:22:14;21.20;24.20
20610;DHT22;10463;52.378;9.688;2023-02-01T03:24:44;21.20;24.20
20610;DHT22;10463;52.378;9.688;2023-02-01T03:27:17;21.20;24.20
20610;DHT22;10463;52.378;9.688;2023-02-01T03:29:51;21.20;24.10
20610;DHT22;10463;52.378;9.688;2023-02-01T03:32:20;21.20;24.10
20610;DHT22;10463;52.378;9.688;2023-02-01T03:34:48;21.20;24.60
20610;DHT22;10463;52.378;9.688;2023-02-01T03:37:22;21.20;24.10
20610;DHT22;10463;52.378;9.688;2023-02-01T03:39:58;21.30;24.20
20610;DHT22;10463;52.378;9.688;2023-02-01T03:42:30;21.30;24.10
20610;DHT22;10463;52.378;9.688;2023-02-01T03:45:03;21.30;24.10
20610;DHT22;10463;52.378;9.688;2023-02-01T03:47:36;21.30;24.00
20610;DHT22;10463;52.378;9.688;2023-02-01T03:50:07;21.30;24.10
20610;DHT22;10463;52.378;9.688;2023-02-01T03:52:42;21.30;24.00
20610;DHT22;10463;52.378;9.688;2023-02-01T03:55:11;21.30;24.00
20610;DHT22;10463;52.378;9.688;2023-02-01T03:57:44;21.30;24.00
20610;DHT22;10463;52.378;9.688;2023-02-01T04:00:18;21.30;24.00
20610;DHT22;10463;52.378;9.688;2023-02-01T04:02:45;21.30;24.00
20610;DHT22;10463;52.378;9.688;2023-02-01T04:05:12;21.30;24.00
20610;DHT22;10463;52.378;9.688;2023-02-01T04:07:45;21.30;24.00
20610;DHT22;10463;52.378;9.688;2023-02-01T04:10:12;21.40;24.10
20610;DHT22;10463;52.378;9.688;2023-02-01T04:12:38;21.30;24.00
20610;DHT22;10463;52.378;9.688;2023-02-01T04:15:07;21.30;24.00
20610;DHT22;10463;52.378;9.688;2023-02-01T04:17:33;21.40;24.00
20610;DHT22;10463;52.378;9.688;2023-02-01T04:20:00;21.30;23.90
20610;DHT22;10463;52.378;9.688;2023-02-01T04:22:26;21.30;24.00
20610;DHT22;10463;52.378;9.688;2023-02-01T04:24:54;21.40;24.00
20610;DHT22;10463;52.378;9.688;2023-02-01T04:27:21;21.40;24.00
20610;DHT22;10463;52.378;9.688;2023-02-01T04:30:08;21.40;24.00
20610;DHT22;10463;52.378;9.688;2023-02-01T04:32:55;21.40;24.00
20610;DHT22;10463;52.378;9.688;2023-02-01T04:35:40;21.40;24.00
20610;DHT22;10463;52.378;9.688;2023-02-01T04:38:26;21.40;24.00
20610;DHT22;10463;52.378;9.688;2023-02-01T04:41:12;21.30;24.00
20610;DHT22;10463;52.378;9.688;2023-02-01T04:43:57;21.30;24.00
20610;DHT22;10463;52.378;9.688;2023-02-01T04:46:42;21.30;24.00
20610;DHT22;10463;52.378;9.688;2023-02-01T04:49:27;21.30;24.00
20610;DHT22;10463;52.378;9.688;2023-02-01T04:52:12;21.30;24.00
20610;DHT22;10463;52.378;9.688;2023-02-01T04:54:57;21.30;24.00
20610;DHT22;10463;52.378;9.688;2023-02-01T04:57:45;21.30;24.00
20610;DHT22;10463;52.378;9.688;2023-02-01T05:00:32;21.30;24.00
20610;DHT22;10463;52.378;9.688;2023-02-01T05:03:16;21.30;24.10
20610;DHT22;10463;52.378;9.688;2023-02-01T05:06:02;21.30;24.10
20610;DHT22;10463;52.378;9.688;2023-02-01T05:08:49;21.30;24.10
20610;DHT22;10463;52.378;9.688;2023-02-01T05:11:34;21.30;24.10
20610;DHT22;10463;52.378;9.688;2023-02-01T05:14:39;21.30;24.10
20610;DHT22;10463;52.378;9.688;2023-02-01T05:17:24;21.30;24.10
20610;DHT22;10463;52.378;9.688;2023-02-01T05:20:10;21.30;24.10
20610;DHT22;10463;52.378;9.688;2023-02-01T05:22:55;21.30;24.10
20610;DHT22;10463;52.378;9.688;2023-02-01T05:25:40;21.30;24.20
20610;DHT22;10463;52.378;9.688;2023-02-01T05:28:25;21.30;24.70
20610;DHT22;10463;52.378;9.688;2023-02-01T05:31:12;21.30;24.10
20610;DHT22;10463;52.378;9.688;2023-02-01T05:33:57;21.30;24.20
20610;DHT22;10463;52.378;9.688;2023-02-01T05:36:42;21.30;24.20
20610;DHT22;10463;52.378;9.688;2023-02-01T05:39:27;21.30;24.20
20610;DHT22;10463;52.378;9.688;2023-02-01T05:42:11;21.30;24.20
20610;DHT22;10463;52.378;9.688;2023-02-01T05:44:56;21.30;24.20
20610;DHT22;10463;52.378;9.688;2023-02-01T05:47:42;21.30;24.20
20610;DHT22;10463;52.378;9.688;2023-02-01T05:50:26;21.30;24.20
20610;DHT22;10463;52.378;9.688;2023-02-01T05:53:15;21.30;24.20
20610;DHT22;10463;52.378;9.688;2023-02-01T05:56:00;21.30;24.80
20610;DHT22;10463;52.378;9.688;2023-02-01T05:58:45;21.30;24.20
20610;DHT22;10463;52.378;9.688;2023-02-01T06:01:30;21.30;24.20
20610;DHT22;10463;52.378;9.688;2023-02-01T06:04:16;21.30;24.20
20610;DHT22;10463;52.378;9.688;2023-02-01T06:07:00;21.30;24.20
20610;DHT22;10463;52.378;9.688;2023-02-01T06:09:45;21.30;24.20
20610;DHT22;10463;52.378;9.688;2023-02-01T06:12:30;21.30;24.20
20610;DHT22;10463;52.378;9.688;2023-02-01T06:15:15;21.30;24.20
20610;DHT22;10463;52.378;9.688;2023-02-01T06:18:01;21.30;24.20
20610;DHT22;10463;52.378;9.688;2023-02-01T06:20:53;21.30;24.30
20610;DHT22;10463;52.378;9.688;2023-02-01T06:23:38;21.30;24.20
20610;DHT22;10463;52.378;9.688;2023-02-01T06:26:22;21.30;24.20
20610;DHT22;10463;52.378;9.688;2023-02-01T06:29:09;21.30;24.20
20610;DHT22;10463;52.378;9.688;2023-02-01T06:31:55;21.30;24.30
20610;DHT22;10463;52.378;9.688;2023-02-01T06:34:39;21.30;24.20
20610;DHT22;10463;52.378;9.688;2023-02-01T06:37:25;21.30;24.20
20610;DHT22;10463;52.378;9.688;2023-02-01T06:40:12;21.30;24.20
20610;DHT22;10463;52.378;9.688;2023-02-01T06:42:57;21.30;24.20
20610;DHT22;10463;52.378;9.688;2023-02-01T06:45:42;21.30;24.20
20610;DHT22;10463;52.378;9.688;2023-02-01T06:48:27;21.30;24.30
20610;DHT22;10463;52.378;9.688;2023-02-01T06:51:20;21.30;24.20
20610;DHT22;10463;52.378;9.688;2023-02-01T06:54:07;21.30;24.30
20610;DHT22;10463;52.378;9.688;2023-02-01T06:56:52;21.30;24.30
20610;DHT22;10463;52.378;9.688;2023-02-01T06:59:37;21.30;24.20
20610;DHT22;10463;52.378;9.688;2023-02-01T07:02:22;21.30;24.30
20610;DHT22;10463;52.378;9.688;2023-02-01T07:05:08;21.30;24.20
20610;DHT22;10463;52.378;9.688;2023-02-01T07:07:53;21.30;24.30
20610;DHT22;10463;52.378;9.688;2023-02-01T07:10:39;21.30;24.30
20610;DHT22;10463;52.378;9.688;2023-02-01T07:13:24;21.30;24.30
20610;DHT22;10463;52.378;9.688;2023-02-01T07:16:11;21.30;24.30
20610;DHT22;10463;52.378;9.688;2023-02-01T07:18:56;21.30;24.30
20610;DHT22;10463;52.378;9.688;2023-02-01T07:21:41;21.30;24.30
20610;DHT22;10463;52.378;9.688;2023-02-01T07:24:25;21.30;24.30
20610;DHT22;10463;52.378;9.688;2023-02-01T07:27:11;21.30;24.30
20610;DHT22;10463;52.378;9.688;2023-02-01T07:29:56;21.30;24.30
20610;DHT22;10463;52.378;9.688;2023-02-01T07:32:44;21.30;24.30
20610;DHT22;10463;52.378;9.688;2023-02-01T07:35:30;21.30;24.30
20610;DHT22;10463;52.378;9.688;2023-02-01T07:38:15;21.30;24.30
20610;DHT22;10463;52.378;9.688;2023-02-01T07:41:00;21.30;24.90
20610;DHT22;10463;52.378;9.688;2023-02-01T07:43:47;21.30;24.40
20610;DHT22;10463;52.378;9.688;2023-02-01T07:46:32;21.30;24.40
20610;DHT22;10463;52.378;9.688;2023-02-01T07:49:17;21.30;24.40
20610;DHT22;10463;52.378;9.688;2023-02-01T07:52:02;21.30;24.40
20610;DHT22;10463;52.378;9.688;2023-02-01T07:54:46;21.30;24.40
20610;DHT22;10463;52.378;9.688;2023-02-01T07:57:31;21.30;24.40
20610;DHT22;10463;52.378;9.688;2023-02-01T08:00:19;21.30;24.40
20610;DHT22;10463;52.378;9.688;2023-02-01T08:03:23;21.30;24.40
20610;DHT22;10463;52.378;9.688;2023-02-01T08:06:08;21.20;23.40
20610;DHT22;10463;52.378;9.688;2023-02-01T08:08:53;21.00;22.90
20610;DHT22;10463;52.378;9.688;2023-02-01T08:11:38;20.90;22.80
20610;DHT22;10463;52.378;9.688;2023-02-01T08:14:24;20.70;22.70
20610;DHT22;10463;52.378;9.688;2023-02-01T08:17:10;20.50;22.60
20610;DHT22;10463;52.378;9.688;2023-02-01T08:19:54;20.30;22.60
20610;DHT22;10463;52.378;9.688;2023-02-01T08:22:39;20.10;22.80
20610;DHT22;10463;52.378;9.688;2023-02-01T08:25:25;19.80;22.80
20610;DHT22;10463;52.378;9.688;2023-02-01T08:28:10;19.70;23.00
20610;DHT22;10463;52.378;9.688;2023-02-01T08:30:55;19.50;23.20
20610;DHT22;10463;52.378;9.688;2023-02-01T08:33:42;19.30;23.30
20610;DHT22;10463;52.378;9.688;2023-02-01T08:36:30;19.10;23.40
20610;DHT22;10463;52.378;9.688;2023-02-01T08:39:15;19.00;23.40
20610;DHT22;10463;52.378;9.688;2023-02-01T08:42:00;18.80;23.50
20610;DHT22;10463;52.378;9.688;2023-02-01T08:45:05;18.60;23.50
20610;DHT22;10463;52.378;9.688;2023-02-01T08:47:50;18.50;23.70
20610;DHT22;10463;52.378;9.688;2023-02-01T08:50:36;18.30;23.70
20610;DHT22;10463;52.378;9.688;2023-02-01T08:53:21;18.30;23.90
20610;DHT22;10463;52.378;9.688;2023-02-01T08:56:06;18.10;23.90
20610;DHT22;10463;52.378;9.688;2023-02-01T08:58:51;18.00;24.10
20610;DHT22;10463;52.378;9.688;2023-02-01T09:01:36;17.90;24.10
20610;DHT22;10463;52.378;9.688;2023-02-01T09:04:21;17.80;24.20
20610;DHT22;10463;52.378;9.688;2023-02-01T09:07:08;17.70;24.30
20610;DHT22;10463;52.378;9.688;2023-02-01T09:09:52;17.60;24.30
20610;DHT22;10463;52.378;9.688;2023-02-01T09:12:39;17.50;24.40
20610;DHT22;10463;52.378;9.688;2023-02-01T09:15:24;17.40;24.60
20610;DHT22;10463;52.378;9.688;2023-02-01T09:18:09;17.40;24.80
20610;DHT22;10463;52.378;9.688;2023-02-01T09:20:53;17.30;24.70
20610;DHT22;10463;52.378;9.688;2023-02-01T09:23:40;17.40;24.80
20610;DHT22;10463;52.378;9.688;2023-02-01T09:26:25;17.40;25.20
20610;DHT22;10463;52.378;9.688;2023-02-01T09:29:10;17.40;25.30
20610;DHT22;10463;52.378;9.688;2023-02-01T09:31:55;17.40;25.40
20610;DHT22;10463;52.378;9.688;2023-02-01T09:34:40;17.50;25.50
20610;DHT22;10463;52.378;9.688;2023-02-01T09:37:25;17.60;25.60
20610;DHT22;10463;52.378;9.688;2023-02-01T09:40:15;17.60;25.60
20610;DHT22;10463;52.378;9.688;2023-02-01T09:43:15;17.70;25.60
20610;DHT22;10463;52.378;9.688;2023-02-01T09:46:18;17.80;25.60
20610;DHT22;10463;52.378;9.688;2023-02-01T09:49:10;17.90;25.60
20610;DHT22;10463;52.378;9.688;2023-02-01T09:51:56;18.00;25.50
20610;DHT22;10463;52.378;9.688;2023-02-01T09:54:46;18.00;25.40
20610;DHT22;10463;52.378;9.688;2023-02-01T09:57:43;18.10;25.50
20610;DHT22;10463;52.378;9.688;2023-02-01T10:00:36;18.10;25.30
20610;DHT22;10463;52.378;9.688;2023-02-01T10:03:12;18.20;25.30
20610;DHT22;10463;52.378;9.688;2023-02-01T10:05:57;18.30;25.40
20610;DHT22;10463;52.378;9.688;2023-02-01T10:08:33;18.40;25.50
20610;DHT22;10463;52.378;9.688;2023-02-01T10:11:17;18.40;25.50
20610;DHT22;10463;52.378;9.688;2023-02-01T10:13:56;18.50;25.50
20610;DHT22;10463;52.378;9.688;2023-02-01T10:16:35;18.50;25.50
20610;DHT22;10463;52.378;9.688;2023-02-01T10:19:19;18.60;25.50
20610;DHT22;10463;52.378;9.688;2023-02-01T10:21:54;18.70;25.50
20610;DHT22;10463;52.378;9.688;2023-02-01T10:24:43;18.70;25.40
20610;DHT22;10463;52.378;9.688;2023-02-01T10:27:17;18.80;25.40
20610;DHT22;10463;52.378;9.688;2023-02-01T10:29:48;18.90;25.50
20610;DHT22;10463;52.378;9.688;2023-02-01T10:32:20;18.90;25.40
20610;DHT22;10463;52.378;9.688;2023-02-01T10:34:53;18.90;25.40
20610;DHT22;10463;52.378;9.688;2023-02-01T10:37:27;19.00;25.40
20610;DHT22;10463;52.378;9.688;2023-02-01T10:39:56;19.10;25.40
20610;DHT22;10463;52.378;9.688;2023-02-01T10:42:26;19.10;25.40
20610;DHT22;10463;52.378;9.688;2023-02-01T10:44:57;19.10;25.40
20610;DHT22;10463;52.378;9.688;2023-02-01T10:47:24;19.20;25.40
20610;DHT22;10463;52.378;9.688;2023-02-01T10:50:00;19.20;25.30
20610;DHT22;10463;52.378;9.688;2023-02-01T10:52:38;19.30;25.40
20610;DHT22;10463;52.378;9.688;2023-02-01T10:55:46;19.40;25.40
20610;DHT22;10463;52.378;9.688;2023-02-01T10:58:17;19.40;25.30
20610;DHT22;10463;52.378;9.688;2023-02-01T11:00:48;19.40;25.30
20610;DHT22;10463;52.378;9.688;2023-02-01T11:03:51;19.50;25.30
20610;DHT22;10463;52.378;9.688;2023-02-01T11:06:26;19.50;25.30
20610;DHT22;10463;52.378;9.688;2023-02-01T11:08:55;19.60;25.30
20610;DHT22;10463;52.378;9.688;2023-02-01T11:11:24;19.60;25.30
20610;DHT22;10463;52.378;9.688;2023-02-01T11:13:57;19.60;25.30
20610;DHT22;10463;52.378;9.688;2023-02-01T11:16:35;19.70;25.30
20610;DHT22;10463;52.378;9.688;2023-02-01T11:19:02;19.70;25.30
20610;DHT22;10463;52.378;9.688;2023-02-01T11:21:29;19.70;25.30
20610;DHT22;10463;52.378;9.688;2023-02-01T11:24:00;19.80;25.30
20610;DHT22;10463;52.378;9.688;2023-02-01T11:26:27;19.80;25.30
20610;DHT22;10463;52.378;9.688;2023-02-01T11:28:58;19.80;25.20
20610;DHT22;10463;52.378;9.688;2023-02-01T11:31:27;19.90;25.30
20610;DHT22;10463;52.378;9.688;2023-02-01T11:33:59;19.90;25.20
20610;DHT22;10463;52.378;9.688;2023-02-01T11:36:29;20.00;25.20
20610;DHT22;10463;52.378;9.688;2023-02-01T11:39:20;20.00;25.10
20610;DHT22;10463;52.378;9.688;2023-02-01T11:42:00;20.00;25.10
20610;DHT22;10463;52.378;9.688;2023-02-01T11:44:34;20.00;25.00
20610;DHT22;10463;52.378;9.688;2023-02-01T11:47:26;20.10;25.00
20610;DHT22;10463;52.378;9.688;2023-02-01T11:49:56;20.10;25.00
20610;DHT22;10463;52.378;9.688;2023-02-01T11:52:41;20.10;24.90
20610;DHT22;10463;52.378;9.688;2023-02-01T11:55:44;20.10;24.90
20610;DHT22;10463;52.378;9.688;2023-02-01T12:01:29;20.20;25.00
20610;DHT22;10463;52.378;9.688;2023-02-01T12:04:35;20.20;25.00
20610;DHT22;10463;52.378;9.688;2023-02-01T12:07:16;20.20;25.00
20610;DHT22;10463;52.378;9.688;2023-02-01T12:09:57;20.20;25.00
20610;DHT22;10463;52.378;9.688;2023-02-01T12:12:36;20.30;25.10
20610;DHT22;10463;52.378;9.688;2023-02-01T12:18:47;20.30;25.00
20610;DHT22;10463;52.378;9.688;2023-02-01T12:21:41;20.40;25.00
20610;DHT22;10463;52.378;9.688;2023-02-01T12:24:46;20.40;24.90
20610;DHT22;10463;52.378;9.688;2023-02-01T12:33:31;20.50;24.80
20610;DHT22;10463;52.378;9.688;2023-02-01T12:36:15;20.50;24.80
20610;DHT22;10463;52.378;9.688;2023-02-01T12:38:53;20.50;24.70
20610;DHT22;10463;52.378;9.688;2023-02-01T12:41:50;20.50;24.70
20610;DHT22;10463;52.378;9.688;2023-02-01T12:44:33;20.60;24.70
20610;DHT22;10463;52.378;9.688;2023-02-01T12:47:06;20.60;24.60
20610;DHT22;10463;52.378;9.688;2023-02-01T12:49:46;20.60;24.60
20610;DHT22;10463;52.378;9.688;2023-02-01T12:52:20;20.60;24.50
20610;DHT22;10463;52.378;9.688;2023-02-01T12:54:53;20.60;24.50
20610;DHT22;10463;52.378;9.688;2023-02-01T12:57:28;20.60;24.50
20610;DHT22;10463;52.378;9.688;2023-02-01T13:00:02;20.60;24.50
20610;DHT22;10463;52.378;9.688;2023-02-01T13:02:39;20.60;24.50
20610;DHT22;10463;52.378;9.688;2023-02-01T13:05:16;20.60;24.40
20610;DHT22;10463;52.378;9.688;2023-02-01T13:07:49;20.60;24.90
20610;DHT22;10463;52.378;9.688;2023-02-01T13:10:21;20.70;24.40
20610;DHT22;10463;52.378;9.688;2023-02-01T13:12:56;20.70;24.40
20610;DHT22;10463;52.378;9.688;2023-02-01T13:15:30;20.70;24.30
20610;DHT22;10463;52.378;9.688;2023-02-01T13:18:02;20.70;24.30
20610;DHT22;10463;52.378;9.688;2023-02-01T13:20:31;20.70;24.30
20610;DHT22;10463;52.378;9.688;2023-02-01T13:23:03;20.70;24.30
20610;DHT22;10463;52.378;9.688;2023-02-01T13:25:37;20.70;24.30
20610;DHT22;10463;52.378;9.688;2023-02-01T13:28:14;20.70;24.30
20610;DHT22;10463;52.378;9.688;2023-02-01T13:31:01;20.70;24.20
20610;DHT22;10463;52.378;9.688;2023-02-01T13:33:47;20.70;24.30
20610;DHT22;10463;52.378;9.688;2023-02-01T13:36:53;20.70;24.30
20610;DHT22;10463;52.378;9.688;2023-02-01T13:39:43;20.70;24.40
20610;DHT22;10463;52.378;9.688;2023-02-01T13:42:19;20.70;24.50
20610;DHT22;10463;52.378;9.688;2023-02-01T13:44:51;20.70;24.50
20610;DHT22;10463;52.378;9.688;2023-02-01T13:47:28;20.70;24.60
20610;DHT22;10463;52.378;9.688;2023-02-01T13:49:58;20.70;24.60
20610;DHT22;10463;52.378;9.688;2023-02-01T13:52:38;20.70;24.60
20610;DHT22;10463;52.378;9.688;2023-02-01T13:55:34;20.70;24.50
20610;DHT22;10463;52.378;9.688;2023-02-01T13:58:18;20.80;24.60
20610;DHT22;10463;52.378;9.688;2023-02-01T14:00:47;20.80;24.70
20610;DHT22;10463;52.378;9.688;2023-02-01T14:03:19;20.80;24.70
20610;DHT22;10463;52.378;9.688;2023-02-01T14:06:18;20.80;24.70
20610;DHT22;10463;52.378;9.688;2023-02-01T14:09:32;20.80;24.70
20610;DHT22;10463;52.378;9.688;2023-02-01T14:15:25;20.80;24.80
20610;DHT22;10463;52.378;9.688;2023-02-01T14:17:54;20.70;24.70
20610;DHT22;10463;52.378;9.688;2023-02-01T14:20:46;20.80;24.80
20610;DHT22;10463;52.378;9.688;2023-02-01T14:23:25;20.80;24.80
20610;DHT22;10463;52.378;9.688;2023-02-01T14:26:21;20.80;24.80
20610;DHT22;10463;52.378;9.688;2023-02-01T14:29:02;20.80;24.90
20610;DHT22;10463;52.378;9.688;2023-02-01T14:31:47;20.80;24.90
20610;DHT22;10463;52.378;9.688;2023-02-01T14:34:29;20.80;24.90
20610;DHT22;10463;52.378;9.688;2023-02-01T14:36:59;20.80;24.90
20610;DHT22;10463;52.378;9.688;2023-02-01T14:42:36;20.90;24.90
20610;DHT22;10463;52.378;9.688;2023-02-01T14:45:47;20.90;24.90
20610;DHT22;10463;52.378;9.688;2023-02-01T14:48:45;20.90;24.90
20610;DHT22;10463;52.378;9.688;2023-02-01T14:51:16;20.90;25.00
20610;DHT22;10463;52.378;9.688;2023-02-01T14:53:44;20.90;24.90
20610;DHT22;10463;52.378;9.688;2023-02-01T14:56:17;20.90;24.90
20610;DHT22;10463;52.378;9.688;2023-02-01T14:58:53;20.90;24.90
20610;DHT22;10463;52.378;9.688;2023-02-01T15:01:23;20.90;25.50
20610;DHT22;10463;52.378;9.688;2023-02-01T15:03:59;20.90;24.90
20610;DHT22;10463;52.378;9.688;2023-02-01T15:06:33;21.00;25.00
20610;DHT22;10463;52.378;9.688;2023-02-01T15:09:07;21.00;25.00
20610;DHT22;10463;52.378;9.688;2023-02-01T15:11:59;20.90;24.90
20610;DHT22;10463;52.378;9.688;2023-02-01T15:14:27;21.00;25.00
20610;DHT22;10463;52.378;9.688;2023-02-01T15:16:54;21.00;25.00
20610;DHT22;10463;52.378;9.688;2023-02-01T15:19:23;21.00;25.00
20610;DHT22;10463;52.378;9.688;2023-02-01T15:21:55;21.00;25.00
20610;DHT22;10463;52.378;9.688;2023-02-01T15:24:23;21.00;25.00
20610;DHT22;10463;52.378;9.688;2023-02-01T15:26:51;21.10;25.00
20610;DHT22;10463;52.378;9.688;2023-02-01T15:29:18;21.10;25.50
20610;DHT22;10463;52.378;9.688;2023-02-01T15:31:48;21.10;25.00
20610;DHT22;10463;52.378;9.688;2023-02-01T15:34:15;21.10;25.00
20610;DHT22;10463;52.378;9.688;2023-02-01T15:36:42;21.10;25.00
20610;DHT22;10463;52.378;9.688;2023-02-01T15:39:35;21.10;25.00
20610;DHT22;10463;52.378;9.688;2023-02-01T15:42:11;21.10;25.00
20610;DHT22;10463;52.378;9.688;2023-02-01T15:44:43;21.10;25.00
20610;DHT22;10463;52.378;9.688;2023-02-01T15:47:16;21.20;25.00
20610;DHT22;10463;52.378;9.688;2023-02-01T15:49:45;21.20;25.00
20610;DHT22;10463;52.378;9.688;2023-02-01T15:52:22;21.20;25.00
20610;DHT22;10463;52.378;9.688;2023-02-01T15:54:55;21.20;25.40
20610;DHT22;10463;52.378;9.688;2023-02-01T15:57:25;21.20;24.90
20610;DHT22;10463;52.378;9.688;2023-02-01T15:59:58;21.10;24.80
20610;DHT22;10463;52.378;9.688;2023-02-01T16:02:32;21.20;24.80
20610;DHT22;10463;52.378;9.688;2023-02-01T16:04:59;21.20;24.80
20610;DHT22;10463;52.378;9.688;2023-02-01T16:07:28;21.10;24.70
20610;DHT22;10463;52.378;9.688;2023-02-01T16:09:58;21.20;24.70
20610;DHT22;10463;52.378;9.688;2023-02-01T16:12:31;21.20;24.70
20610;DHT22;10463;52.378;9.688;2023-02-01T16:15:00;21.10;24.60
20610;DHT22;10463;52.378;9.688;2023-02-01T16:17:26;21.20;24.70
20610;DHT22;10463;52.378;9.688;2023-02-01T16:19:53;21.20;24.70
20610;DHT22;10463;52.378;9.688;2023-02-01T16:22:22;21.20;24.70
20610;DHT22;10463;52.378;9.688;2023-02-01T16:24:49;21.10;24.60
20610;DHT22;10463;52.378;9.688;2023-02-01T16:27:17;21.10;24.50
20610;DHT22;10463;52.378;9.688;2023-02-01T16:29:43;21.10;24.50
20610;DHT22;10463;52.378;9.688;2023-02-01T16:32:16;21.20;24.60
20610;DHT22;10463;52.378;9.688;2023-02-01T16:34:43;21.10;24.50
20610;DHT22;10463;52.378;9.688;2023-02-01T16:37:12;21.20;24.60
20610;DHT22;10463;52.378;9.688;2023-02-01T16:39:39;21.20;24.50
20610;DHT22;10463;52.378;9.688;2023-02-01T16:42:11;21.20;24.50
20610;DHT22;10463;52.378;9.688;2023-02-01T16:44:39;21.20;24.60
20610;DHT22;10463;52.378;9.688;2023-02-01T16:47:13;21.20;24.50
20610;DHT22;10463;52.378;9.688;2023-02-01T16:49:41;21.20;24.50
20610;DHT22;10463;52.378;9.688;2023-02-01T16:52:14;21.20;24.50
20610;DHT22;10463;52.378;9.688;2023-02-01T16:54:40;21.10;24.40
20610;DHT22;10463;52.378;9.688;2023-02-01T16:57:11;21.20;24.50
20610;DHT22;10463;52.378;9.688;2023-02-01T16:59:40;21.20;24.40
20610;DHT22;10463;52.378;9.688;2023-02-01T17:02:10;21.20;24.50